< < Back
Terminal Aerodrome Forecast


Current Version              Previous Versions:   1  2  3  4  5  6  7  8  9  

Terminal Aerodrome Forecast

801
FTAK31 PAJN 020527
TAFAHN
TAF
PAHN 020527Z 0206/0306 VRB03KT P6SM OVC090
     FM021000 30010KT P6SM BKN090
     FM021800 30013G18KT P6SM BKN100
     FM030000 30008KT P6SM BKN100
      AMD LTD TO CLD VIS AND WIND=

Latest METAR

747
SAUS70 KWBC 020600
MTRAHN
METAR KAHN 020551Z AUTO 00000KT 10SM CLR 22/21 A3012 RMK AO2 SLP190
T02170206 10261 20211 50002


USA.gov is the U.S. government's official web portal to all federal, state and local government web resources and services.